createdAt,value
2024-05-09T00:00:53.822Z,3.03
2024-05-09T00:03:46.984Z,4.65
2024-05-09T00:06:17.302Z,4.15
2024-05-09T00:08:48.114Z,2.05
2024-05-09T00:11:18.625Z,2.20
2024-05-09T00:13:52.133Z,3.67
2024-05-09T00:16:22.485Z,2.42
2024-05-09T00:18:53.386Z,1.92
2024-05-09T00:21:23.594Z,2.60
2024-05-09T00:23:54.165Z,3.17
2024-05-09T00:26:24.546Z,2.53
2024-05-09T00:28:57.931Z,3.97
2024-05-09T00:31:28.342Z,2.15
2024-05-09T00:33:59.189Z,2.83
2024-05-09T00:36:29.486Z,4.68
2024-05-09T00:39:00.235Z,2.03
2024-05-09T00:41:30.568Z,2.65
2024-05-09T00:44:04.627Z,4.70
2024-05-09T00:46:35.206Z,2.83
2024-05-09T00:49:06.034Z,2.55
2024-05-09T00:51:36.398Z,2.63
2024-05-09T00:54:07.151Z,3.85
2024-05-09T00:56:38.875Z,4.40
2024-05-09T00:59:12.730Z,4.40
2024-05-09T01:01:44.689Z,4.13
2024-05-09T01:04:15.949Z,2.13
2024-05-09T01:06:46.261Z,2.25
2024-05-09T01:09:16.918Z,1.98
2024-05-09T01:11:47.310Z,2.70
2024-05-09T01:14:21.033Z,2.60
2024-05-09T01:16:51.799Z,2.85
2024-05-09T01:19:26.360Z,3.35
2024-05-09T01:21:56.904Z,4.28
2024-05-09T01:24:30.307Z,2.35
2024-05-09T01:27:00.614Z,3.50
2024-05-09T01:29:31.471Z,3.75
2024-05-09T01:32:04.558Z,3.47
2024-05-09T01:34:35.443Z,2.42
2024-05-09T01:37:05.743Z,2.40
2024-05-09T01:39:39.115Z,2.58
2024-05-09T01:42:09.481Z,3.00
2024-05-09T01:44:40.224Z,3.53
2024-05-09T01:47:13.649Z,3.55
2024-05-09T01:49:44.513Z,4.00
2024-05-09T01:52:14.842Z,4.97
2024-05-09T01:54:48.103Z,5.28
2024-05-09T01:57:18.532Z,3.75
2024-05-09T01:59:49.174Z,4.00
2024-05-09T02:02:19.507Z,3.42
2024-05-09T02:04:50.421Z,3.75
2024-05-09T02:07:20.865Z,4.10
2024-05-09T02:09:54.904Z,3.60
2024-05-09T02:12:25.387Z,2.35
2024-05-09T02:14:56.045Z,2.70
2024-05-09T02:17:26.501Z,4.85
2024-05-09T02:19:57.258Z,4.85
2024-05-09T02:22:27.556Z,2.97
2024-05-09T02:25:01.031Z,1.98
2024-05-09T02:27:31.302Z,3.13
2024-05-09T02:30:01.905Z,4.55
2024-05-09T02:32:32.559Z,3.47
2024-05-09T02:35:03.481Z,3.40
2024-05-09T02:37:31.114Z,2.53
2024-05-09T02:40:05.627Z,2.85
2024-05-09T02:42:33.788Z,3.35
2024-05-09T02:45:04.387Z,6.55
2024-05-09T02:47:32.037Z,3.55
2024-05-09T02:50:03.048Z,4.30
2024-05-09T02:52:31.358Z,4.45
2024-05-09T02:55:04.625Z,4.45
2024-05-09T02:57:32.117Z,2.35
2024-05-09T03:00:03.578Z,4.00
2024-05-09T03:02:32.426Z,6.68
2024-05-09T03:05:03.285Z,4.78
2024-05-09T03:07:31.005Z,4.53
2024-05-09T03:10:07.396Z,5.53
2024-05-09T03:12:39.610Z,4.57
2024-05-09T03:15:10.990Z,4.75
2024-05-09T03:17:40.699Z,4.40
2024-05-09T03:20:20.402Z,4.85
2024-05-09T03:22:54.044Z,6.20
2024-05-09T03:25:28.999Z,8.18
2024-05-09T03:27:56.834Z,2.78
2024-05-09T03:30:39.026Z,3.58
2024-05-09T03:33:10.996Z,4.93
2024-05-09T03:35:41.875Z,4.10
2024-05-09T03:38:12.635Z,4.25
2024-05-09T03:40:51.115Z,4.05
2024-05-09T03:43:22.181Z,3.47
2024-05-09T03:45:50.717Z,5.63
2024-05-09T03:48:21.243Z,4.45
2024-05-09T03:50:50.740Z,4.00
2024-05-09T03:53:21.256Z,3.05
2024-05-09T03:55:51.921Z,3.63
2024-05-09T03:58:22.294Z,9.52
2024-05-09T04:00:50.428Z,4.25
2024-05-09T04:03:21.147Z,3.53
2024-05-09T04:05:49.422Z,4.75
2024-05-09T04:08:19.633Z,3.22
2024-05-09T04:10:47.666Z,4.00
2024-05-09T04:13:20.722Z,4.28
2024-05-09T04:15:49.108Z,3.00
2024-05-09T04:18:20.375Z,2.90
2024-05-09T04:20:48.510Z,11.68
2024-05-09T04:23:19.084Z,4.00
2024-05-09T04:25:47.637Z,4.95
2024-05-09T04:28:20.850Z,2.72
2024-05-09T04:30:48.805Z,5.07
2024-05-09T04:33:20.224Z,3.20
2024-05-09T04:35:49.669Z,6.28
2024-05-09T04:38:20.034Z,2.08
2024-05-09T04:40:51.013Z,5.72
2024-05-09T04:43:24.030Z,3.72
2024-05-09T04:45:52.084Z,4.07
2024-05-09T04:48:22.431Z,3.80
2024-05-09T04:50:50.683Z,4.40
2024-05-09T04:53:20.932Z,2.95
2024-05-09T04:55:49.032Z,3.38
2024-05-09T04:58:19.330Z,2.72
2024-05-09T05:00:50.093Z,2.97
2024-05-09T05:03:20.966Z,4.28
2024-05-09T05:05:49.247Z,3.03
2024-05-09T05:08:21.092Z,3.95
2024-05-09T05:10:49.616Z,3.28
2024-05-09T05:13:24.121Z,3.88
2024-05-09T05:15:58.696Z,3.53
2024-05-09T05:18:27.930Z,3.38
2024-05-09T05:21:00.261Z,3.05
2024-05-09T05:23:28.208Z,3.97
2024-05-09T05:26:01.047Z,7.05
2024-05-09T05:28:29.043Z,10.38
2024-05-09T05:31:03.472Z,3.70
2024-05-09T05:33:31.251Z,4.55
2024-05-09T05:36:02.201Z,7.88
2024-05-09T05:38:30.092Z,6.47
2024-05-09T05:41:00.798Z,9.00
2024-05-09T05:43:29.696Z,13.30
2024-05-09T05:46:02.849Z,5.45
2024-05-09T05:48:30.440Z,7.38
2024-05-09T05:51:04.263Z,6.68
2024-05-09T05:53:32.227Z,4.38
2024-05-09T05:56:03.025Z,3.58
2024-05-09T05:58:30.722Z,14.07
2024-05-09T06:01:04.210Z,13.23
2024-05-09T06:03:32.205Z,5.13
2024-05-09T06:06:05.860Z,4.63
2024-05-09T06:08:33.700Z,3.97
2024-05-09T06:11:06.626Z,3.47
2024-05-09T06:13:34.358Z,6.65
2024-05-09T06:16:08.451Z,8.68
2024-05-09T06:18:36.278Z,4.15
2024-05-09T06:21:07.036Z,8.25
2024-05-09T06:23:34.852Z,3.50
2024-05-09T06:26:07.213Z,6.93
2024-05-09T06:28:36.115Z,4.28
2024-05-09T06:31:09.525Z,12.55
2024-05-09T06:33:37.320Z,6.40
2024-05-09T06:36:08.668Z,2.95
2024-05-09T06:38:37.924Z,6.00
2024-05-09T06:41:09.004Z,5.10
2024-05-09T06:43:38.067Z,5.07
2024-05-09T06:46:11.314Z,3.05
2024-05-09T06:48:39.532Z,5.63
2024-05-09T06:51:10.297Z,5.78
2024-05-09T06:53:42.786Z,9.52
2024-05-09T06:56:10.812Z,3.08
2024-05-09T06:58:41.022Z,5.28
2024-05-09T07:01:11.635Z,4.32
2024-05-09T07:03:44.754Z,4.05
2024-05-09T07:06:13.259Z,3.25
2024-05-09T07:08:43.935Z,11.07
2024-05-09T07:11:12.006Z,3.75
2024-05-09T07:13:42.243Z,3.33
2024-05-09T07:16:12.820Z,6.45
2024-05-09T07:18:47.544Z,3.70
2024-05-09T07:21:15.898Z,11.45
2024-05-09T07:23:47.332Z,7.18
2024-05-09T07:26:15.739Z,3.33
2024-05-09T07:28:46.206Z,11.35
2024-05-09T07:31:16.978Z,4.63
2024-05-09T07:33:47.272Z,7.75
2024-05-09T07:36:15.961Z,6.68
2024-05-09T07:38:48.575Z,2.92
2024-05-09T07:41:16.807Z,3.08
2024-05-09T07:43:47.111Z,3.33
2024-05-09T07:47:14.298Z,5.85
2024-05-09T07:54:13.391Z,2.22
2024-05-09T07:56:41.696Z,2.47
2024-05-09T07:59:13.490Z,3.30
2024-05-09T08:01:44.318Z,3.45
2024-05-09T08:04:15.055Z,5.43
2024-05-09T08:06:43.084Z,2.17
2024-05-09T08:11:41.654Z,3.35
2024-05-09T08:14:11.953Z,3.83
2024-05-09T08:16:40.024Z,2.38
2024-05-09T08:19:13.136Z,6.10
2024-05-09T08:21:41.080Z,4.18
2024-05-09T08:24:11.296Z,1.55
2024-05-09T08:26:39.224Z,3.47
2024-05-09T08:29:09.553Z,4.78
2024-05-09T08:31:38.258Z,2.17
2024-05-09T08:34:08.965Z,2.60
2024-05-09T08:36:40.913Z,4.68
2024-05-09T08:39:11.160Z,3.15
2024-05-09T08:41:42.741Z,2.38
2024-05-09T08:44:13.094Z,3.28
2024-05-09T08:46:42.524Z,1.73
2024-05-09T08:49:13.865Z,2.17
2024-05-09T08:51:46.778Z,5.93
2024-05-09T08:54:18.066Z,1.65
2024-05-09T08:56:50.269Z,2.92
2024-05-09T08:59:23.944Z,3.05
2024-05-09T09:01:52.751Z,1.98
2024-05-09T09:04:30.584Z,3.20
2024-05-09T09:07:03.562Z,2.75
2024-05-09T09:09:35.257Z,1.20
2024-05-09T09:12:03.245Z,3.92
2024-05-09T09:14:33.456Z,5.47
2024-05-09T09:17:11.963Z,1.30
2024-05-09T09:19:42.894Z,2.08
2024-05-09T09:22:48.054Z,5.25
2024-05-09T09:25:18.675Z,2.72
2024-05-09T09:27:47.692Z,1.58
2024-05-09T09:30:37.308Z,2.10
2024-05-09T09:33:06.652Z,2.58
2024-05-09T09:35:37.506Z,1.80
2024-05-09T09:38:10.785Z,3.45
2024-05-09T09:40:48.319Z,2.95
2024-05-09T09:43:20.266Z,2.22
2024-05-09T09:45:55.469Z,3.72
2024-05-09T09:48:24.366Z,2.60
2024-05-09T09:50:55.350Z,4.13
2024-05-09T09:53:28.302Z,3.83
2024-05-09T09:55:59.246Z,3.63
2024-05-09T09:58:31.878Z,1.92
2024-05-09T10:01:02.476Z,3.30
2024-05-09T10:03:34.530Z,2.45
2024-05-09T10:06:03.371Z,6.57
2024-05-09T10:08:38.186Z,1.60
2024-05-09T10:11:07.120Z,1.95
2024-05-09T10:13:37.969Z,3.53
2024-05-09T10:16:10.167Z,3.05
2024-05-09T10:18:41.791Z,1.90
2024-05-09T10:21:16.764Z,3.20
2024-05-09T10:24:00.325Z,3.38
2024-05-09T10:26:32.851Z,1.92
2024-05-09T10:29:03.870Z,4.22
2024-05-09T10:31:31.520Z,4.35
2024-05-09T10:34:03.892Z,2.67
2024-05-09T10:36:31.924Z,5.68
2024-05-09T10:39:05.543Z,3.95
2024-05-09T10:41:33.833Z,3.50
2024-05-09T10:44:04.470Z,2.55
2024-05-09T10:46:31.895Z,4.88
2024-05-09T10:49:20.748Z,3.13
2024-05-09T10:51:52.026Z,2.20
2024-05-09T10:54:22.798Z,4.53
2024-05-09T10:56:59.603Z,2.25
2024-05-09T10:59:33.362Z,4.35
2024-05-09T11:02:08.298Z,4.45
2024-05-09T11:04:38.414Z,1.98
2024-05-09T11:07:13.263Z,7.13
2024-05-09T11:09:44.665Z,2.08
2024-05-09T11:12:15.186Z,3.25
2024-05-09T11:14:53.269Z,2.83
2024-05-09T11:17:23.820Z,2.72
2024-05-09T11:19:52.028Z,1.40
2024-05-09T11:22:25.127Z,1.80
2024-05-09T11:24:56.798Z,2.35
2024-05-09T11:27:27.230Z,1.98
2024-05-09T11:29:55.143Z,2.47
2024-05-09T11:32:33.094Z,1.95
2024-05-09T11:35:02.594Z,1.67
2024-05-09T11:37:36.786Z,1.80
2024-05-09T11:40:13.934Z,1.88
2024-05-09T11:42:53.068Z,1.98
2024-05-09T11:45:21.970Z,3.63
2024-05-09T11:47:52.700Z,2.65
2024-05-09T11:50:27.176Z,1.25
2024-05-09T11:53:02.490Z,1.63
2024-05-09T11:55:36.400Z,2.78
2024-05-09T11:58:07.356Z,3.28
2024-05-09T12:00:37.560Z,5.40
2024-05-09T12:03:08.876Z,1.20
2024-05-09T12:05:37.120Z,2.33
2024-05-09T12:08:08.010Z,2.00
2024-05-09T12:10:38.838Z,5.85
2024-05-09T12:13:09.042Z,2.20
2024-05-09T12:15:38.391Z,2.67
2024-05-09T12:18:09.983Z,2.20
2024-05-09T12:20:39.910Z,1.75
2024-05-09T12:23:11.374Z,2.53
2024-05-09T12:25:42.249Z,3.58
2024-05-09T12:28:12.631Z,4.22
2024-05-09T12:30:41.624Z,4.65
2024-05-09T12:33:13.518Z,2.55
2024-05-09T12:35:44.469Z,1.60
2024-05-09T12:38:16.902Z,2.70
2024-05-09T12:40:47.573Z,5.20
2024-05-09T12:43:17.928Z,4.30
2024-05-09T12:45:46.047Z,1.77
2024-05-09T12:48:16.491Z,1.90
2024-05-09T12:50:44.883Z,2.42
2024-05-09T12:53:15.333Z,1.63
2024-05-09T12:55:53.363Z,1.55
2024-05-09T12:58:45.459Z,1.80
2024-05-09T13:01:13.528Z,2.42
2024-05-09T13:03:43.928Z,2.38
2024-05-09T13:06:12.079Z,1.20
2024-05-09T13:08:42.514Z,3.10
2024-05-09T13:11:10.603Z,2.25
2024-05-09T13:13:43.687Z,1.35
2024-05-09T13:16:11.903Z,1.92
2024-05-09T13:18:42.492Z,1.83
2024-05-09T13:21:10.644Z,2.38
2024-05-09T13:23:40.795Z,1.30
2024-05-09T13:26:09.109Z,3.38
2024-05-09T13:28:39.352Z,1.92
2024-05-09T13:31:10.008Z,2.60
2024-05-09T13:33:40.375Z,1.70
2024-05-09T13:36:08.920Z,5.40
2024-05-09T13:38:54.359Z,3.17
2024-05-09T13:41:22.272Z,4.50
2024-05-09T13:43:53.712Z,1.40
2024-05-09T13:46:24.933Z,4.28
2024-05-09T13:48:55.500Z,1.33
2024-05-09T13:51:23.839Z,1.35
2024-05-09T13:53:53.982Z,4.43
2024-05-09T13:56:22.069Z,2.00
2024-05-09T13:58:52.587Z,1.40
2024-05-09T14:01:20.660Z,3.42
2024-05-09T14:04:02.832Z,4.70
2024-05-09T14:06:31.079Z,3.60
2024-05-09T14:09:01.265Z,2.33
2024-05-09T14:11:29.478Z,2.30
2024-05-09T14:13:59.939Z,1.27
2024-05-09T14:16:28.218Z,3.33
2024-05-09T14:18:58.677Z,4.55
2024-05-09T14:21:29.489Z,1.67
2024-05-09T14:24:01.232Z,2.42
2024-05-09T14:26:29.517Z,3.85
2024-05-09T14:28:59.963Z,5.93
2024-05-09T14:31:28.213Z,4.32
2024-05-09T14:34:22.891Z,4.97
2024-05-09T14:36:56.392Z,4.15
2024-05-09T14:39:23.969Z,2.20
2024-05-09T14:41:55.394Z,3.30
2024-05-09T14:44:22.966Z,3.17
2024-05-09T14:46:53.670Z,1.70
2024-05-09T14:49:21.362Z,1.38
2024-05-09T14:51:52.342Z,3.35
2024-05-09T14:54:22.591Z,1.52
2024-05-09T14:56:54.968Z,3.63
2024-05-09T14:59:23.001Z,1.90
2024-05-09T15:01:53.641Z,1.13
2024-05-09T15:04:21.489Z,1.23
2024-05-09T15:06:52.506Z,3.58
2024-05-09T15:09:22.801Z,2.30
2024-05-09T15:11:53.416Z,1.73
2024-05-09T15:14:24.114Z,1.08
2024-05-09T15:16:55.065Z,1.10
2024-05-09T15:19:22.881Z,1.10
2024-05-09T15:21:53.640Z,1.42
2024-05-09T15:24:23.987Z,3.83
2024-05-09T15:26:54.611Z,3.40
2024-05-09T15:29:22.130Z,3.80
2024-05-09T15:31:53.056Z,2.10
2024-05-09T15:34:20.888Z,6.70
2024-05-09T15:36:51.669Z,2.33
2024-05-09T15:39:19.575Z,1.40
2024-05-09T15:41:56.616Z,4.32
2024-05-09T15:44:25.999Z,1.30
2024-05-09T15:46:56.801Z,2.22
2024-05-09T15:49:24.423Z,1.65
2024-05-09T15:51:55.307Z,3.95
2024-05-09T15:54:23.665Z,1.92
2024-05-09T15:56:58.602Z,1.98
2024-05-09T15:59:26.321Z,1.17
2024-05-09T16:01:57.264Z,4.75
2024-05-09T16:04:25.163Z,2.08
2024-05-09T16:06:56.063Z,2.97
2024-05-09T16:09:23.870Z,1.42
2024-05-09T16:11:54.989Z,1.30
2024-05-09T16:14:25.509Z,1.10
2024-05-09T16:16:56.530Z,6.50
2024-05-09T16:19:24.478Z,1.48
2024-05-09T16:21:55.161Z,1.25
2024-05-09T16:24:22.710Z,7.55
2024-05-09T16:26:53.489Z,1.65
2024-05-09T16:29:21.372Z,2.05
2024-05-09T16:31:54.740Z,1.42
2024-05-09T16:34:22.492Z,1.92
2024-05-09T16:36:53.740Z,4.97
2024-05-09T16:39:21.582Z,1.25
2024-05-09T16:41:52.281Z,1.17
2024-05-09T16:44:20.139Z,8.27
2024-05-09T16:46:50.798Z,1.88
2024-05-09T16:49:21.400Z,1.40
2024-05-09T16:51:52.164Z,5.90
2024-05-09T16:54:20.119Z,1.98
2024-05-09T16:56:50.842Z,1.35
2024-05-09T16:59:18.698Z,2.10
2024-05-09T17:01:49.332Z,2.25
2024-05-09T17:04:17.306Z,2.63
2024-05-09T17:06:50.773Z,1.75
2024-05-09T17:09:20.029Z,2.28
2024-05-09T17:11:50.884Z,2.88
2024-05-09T17:14:21.275Z,1.88
2024-05-09T17:16:52.122Z,2.05
2024-05-09T17:19:22.354Z,1.45
2024-05-09T17:21:53.436Z,4.65
2024-05-09T17:24:24.301Z,2.20
2024-05-09T17:26:53.119Z,1.73
2024-05-09T17:29:23.978Z,1.60
2024-05-09T17:31:51.962Z,1.20
2024-05-09T17:34:22.355Z,2.65
2024-05-09T17:36:53.659Z,3.05
2024-05-09T17:39:23.972Z,1.30
2024-05-09T17:41:52.094Z,1.50
2024-05-09T17:44:22.188Z,2.63
2024-05-09T17:46:50.292Z,4.13
2024-05-09T17:49:20.571Z,3.53
2024-05-09T17:51:57.259Z,4.20
2024-05-09T17:54:25.005Z,1.15
2024-05-09T17:56:55.726Z,1.40
2024-05-09T17:59:23.243Z,1.10
2024-05-09T18:01:53.915Z,1.27
2024-05-09T18:04:21.767Z,1.05
2024-05-09T18:06:58.334Z,2.05
2024-05-09T18:09:26.068Z,1.90
2024-05-09T18:11:56.908Z,3.13
2024-05-09T18:14:24.500Z,2.50
2024-05-09T18:16:55.084Z,1.20
2024-05-09T18:19:22.927Z,2.08
2024-05-09T18:21:53.718Z,7.28
2024-05-09T18:24:24.846Z,8.07
2024-05-09T18:26:55.775Z,6.28
2024-05-09T18:29:23.585Z,13.27
2024-05-09T18:31:54.277Z,40.17
2024-05-09T18:34:21.951Z,50.15
2024-05-09T18:36:52.957Z,53.83
2024-05-09T18:39:25.052Z,70.18
2024-05-09T18:41:55.771Z,50.40
2024-05-09T18:44:23.478Z,47.10
2024-05-09T18:46:55.052Z,50.35
2024-05-09T18:49:23.141Z,46.75
2024-05-09T18:51:53.821Z,40.05
2024-05-09T18:54:22.047Z,37.50
2024-05-09T18:56:55.437Z,40.83
2024-05-09T18:59:23.573Z,41.25
2024-05-09T19:01:54.451Z,42.92
2024-05-09T19:04:22.602Z,31.48
2024-05-09T19:06:53.559Z,33.42
2024-05-09T19:09:21.236Z,26.50
2024-05-09T19:11:54.477Z,28.38
2024-05-09T19:14:22.106Z,28.75
2024-05-09T19:16:53.045Z,30.55
2024-05-09T19:19:20.914Z,27.33
2024-05-09T19:21:52.094Z,26.08
2024-05-09T19:24:19.764Z,30.30
2024-05-09T19:26:50.501Z,24.75
2024-05-09T19:29:21.191Z,21.23
2024-05-09T19:31:51.817Z,24.83
2024-05-09T19:34:19.768Z,22.05
2024-05-09T19:36:51.411Z,16.58
2024-05-09T19:39:19.036Z,22.95
2024-05-09T19:41:51.976Z,20.42
2024-05-09T19:44:25.420Z,15.63
2024-05-09T19:46:56.053Z,22.50
2024-05-09T19:49:23.756Z,16.23
2024-05-09T19:51:54.609Z,10.95
2024-05-09T19:54:22.465Z,24.52
2024-05-09T19:56:53.989Z,13.75
2024-05-09T19:59:21.580Z,10.45
2024-05-09T20:01:54.988Z,9.32
2024-05-09T20:04:22.990Z,10.25
2024-05-09T20:06:54.208Z,10.23
2024-05-09T20:09:21.882Z,10.85
2024-05-09T20:11:52.586Z,8.63
2024-05-09T20:14:20.379Z,7.47
2024-05-09T20:16:50.961Z,6.70
2024-05-09T20:19:21.325Z,9.90
2024-05-09T20:21:52.073Z,10.25
2024-05-09T20:24:19.744Z,10.30
2024-05-09T20:26:50.338Z,11.77
2024-05-09T20:29:18.720Z,8.00
2024-05-09T20:31:49.828Z,8.90
2024-05-09T20:34:17.469Z,9.25
2024-05-09T20:36:50.962Z,6.75
2024-05-09T20:39:24.588Z,8.48
2024-05-09T20:41:55.782Z,6.55
2024-05-09T20:44:23.710Z,4.70
2024-05-09T20:46:54.385Z,11.07
2024-05-09T20:49:23.685Z,5.72
2024-05-09T20:51:57.949Z,8.60
2024-05-09T20:54:25.557Z,6.45
2024-05-09T20:56:56.177Z,4.93
2024-05-09T20:59:23.868Z,3.78
2024-05-09T21:01:54.647Z,7.57
2024-05-09T21:04:22.772Z,5.43
2024-05-09T21:06:57.052Z,4.72
2024-05-09T21:09:28.172Z,5.10
2024-05-09T21:11:58.812Z,9.10
2024-05-09T21:14:26.796Z,4.03
2024-05-09T21:17:08.468Z,4.10
2024-05-09T21:19:36.231Z,4.10
2024-05-09T21:22:09.601Z,9.38
2024-05-09T21:24:37.349Z,3.45
2024-05-09T21:27:08.369Z,4.35
2024-05-09T21:29:36.104Z,5.68
2024-05-09T21:32:06.940Z,3.65
2024-05-09T21:34:34.580Z,3.85
2024-05-09T21:37:05.226Z,6.03
2024-05-09T21:39:35.834Z,7.72
2024-05-09T21:42:06.586Z,4.68
2024-05-09T21:44:34.207Z,4.85
2024-05-09T21:47:04.926Z,8.80
2024-05-09T21:49:33.184Z,7.57
2024-05-09T21:52:04.175Z,6.72
2024-05-09T21:54:34.490Z,11.45
2024-05-09T21:57:06.517Z,4.88
2024-05-09T21:59:34.262Z,6.45
2024-05-09T22:02:04.881Z,5.03
2024-05-09T22:04:32.523Z,8.05
2024-05-09T22:07:04.827Z,8.05
2024-05-09T22:09:35.255Z,4.85
2024-05-09T22:12:06.122Z,9.18
2024-05-09T22:14:34.098Z,2.80
2024-05-09T22:17:04.796Z,4.38
2024-05-09T22:19:32.647Z,8.80
2024-05-09T22:22:03.487Z,7.97
2024-05-09T22:24:31.376Z,4.78
2024-05-09T22:27:04.742Z,7.47
2024-05-09T22:29:32.329Z,3.75
2024-05-09T22:32:03.202Z,3.10
2024-05-09T22:34:30.818Z,5.40
2024-05-09T22:37:01.707Z,5.75
2024-05-09T22:39:29.466Z,6.28
2024-05-09T22:42:00.212Z,4.10
2024-05-09T22:44:30.637Z,7.97
2024-05-09T22:47:01.257Z,3.90
2024-05-09T22:49:29.022Z,5.07
2024-05-09T22:51:59.801Z,5.65
2024-05-09T22:54:27.552Z,9.52
2024-05-09T22:56:58.186Z,3.70
2024-05-09T22:59:25.815Z,6.45
2024-05-09T23:01:59.640Z,8.55
2024-05-09T23:04:27.465Z,6.03
2024-05-09T23:06:58.161Z,7.43
2024-05-09T23:09:25.794Z,4.60
2024-05-09T23:11:56.477Z,5.50
2024-05-09T23:14:24.137Z,5.03
2024-05-09T23:16:55.120Z,7.70
2024-05-09T23:19:25.505Z,8.55
2024-05-09T23:21:56.322Z,3.92
2024-05-09T23:24:23.941Z,8.27
2024-05-09T23:26:54.614Z,9.88
2024-05-09T23:29:22.433Z,6.53
2024-05-09T23:31:53.502Z,5.13
2024-05-09T23:34:21.419Z,4.03
2024-05-09T23:36:54.829Z,13.95
2024-05-09T23:39:22.677Z,5.72
2024-05-09T23:41:53.383Z,8.98
2024-05-09T23:44:21.060Z,5.45
2024-05-09T23:46:51.819Z,6.50
2024-05-09T23:49:19.613Z,5.63
2024-05-09T23:51:53.664Z,4.95
2024-05-09T23:54:24.165Z,11.00
2024-05-09T23:56:54.876Z,6.32
2024-05-09T23:59:22.505Z,6.05
